sensor_id;sensor_type;location;lat;lon;timestamp;P1;durP1;ratioP1;P2;durP2;ratioP2
19036;SDS011;9651;49.138;8.900;2022-10-16T00:03:43;0.67;;;0.67;;
19036;SDS011;9651;49.138;8.900;2022-10-16T00:07:47;1.07;;;0.80;;
19036;SDS011;9651;49.138;8.900;2022-10-16T00:11:49;2.00;;;0.60;;
19036;SDS011;9651;49.138;8.900;2022-10-16T00:15:50;3.90;;;1.10;;
19036;SDS011;9651;49.138;8.900;2022-10-16T00:19:55;1.67;;;1.17;;
19036;SDS011;9651;49.138;8.900;2022-10-16T00:23:59;2.03;;;0.70;;
19036;SDS011;9651;49.138;8.900;2022-10-16T00:28:03;2.10;;;0.80;;
19036;SDS011;9651;49.138;8.900;2022-10-16T00:32:05;0.70;;;0.70;;
19036;SDS011;9651;49.138;8.900;2022-10-16T00:36:07;1.30;;;0.90;;
19036;SDS011;9651;49.138;8.900;2022-10-16T00:40:13;0.70;;;0.67;;
19036;SDS011;9651;49.138;8.900;2022-10-16T00:48:45;2.50;;;1.03;;
19036;SDS011;9651;49.138;8.900;2022-10-16T00:52:51;1.93;;;0.80;;
19036;SDS011;9651;49.138;8.900;2022-10-16T00:56:56;3.33;;;1.00;;
19036;SDS011;9651;49.138;8.900;2022-10-16T01:01:00;1.50;;;0.90;;
19036;SDS011;9651;49.138;8.900;2022-10-16T01:05:03;1.13;;;0.70;;
19036;SDS011;9651;49.138;8.900;2022-10-16T01:09:09;1.60;;;0.70;;
19036;SDS011;9651;49.138;8.900;2022-10-16T01:13:20;0.87;;;0.70;;
19036;SDS011;9651;49.138;8.900;2022-10-16T01:17:27;2.40;;;0.87;;
19036;SDS011;9651;49.138;8.900;2022-10-16T01:21:35;4.17;;;0.97;;
19036;SDS011;9651;49.138;8.900;2022-10-16T01:25:47;1.17;;;0.80;;
19036;SDS011;9651;49.138;8.900;2022-10-16T01:29:59;1.03;;;0.80;;
19036;SDS011;9651;49.138;8.900;2022-10-16T01:34:06;1.03;;;0.80;;
19036;SDS011;9651;49.138;8.900;2022-10-16T01:38:12;0.93;;;0.80;;
19036;SDS011;9651;49.138;8.900;2022-10-16T01:42:18;1.10;;;0.90;;
19036;SDS011;9651;49.138;8.900;2022-10-16T01:46:25;0.83;;;0.83;;
19036;SDS011;9651;49.138;8.900;2022-10-16T01:50:28;1.77;;;0.87;;
19036;SDS011;9651;49.138;8.900;2022-10-16T01:54:31;1.33;;;0.90;;
19036;SDS011;9651;49.138;8.900;2022-10-16T01:58:37;2.13;;;0.83;;
19036;SDS011;9651;49.138;8.900;2022-10-16T02:02:45;2.77;;;1.23;;
19036;SDS011;9651;49.138;8.900;2022-10-16T02:06:50;1.17;;;1.00;;
19036;SDS011;9651;49.138;8.900;2022-10-16T02:10:54;2.53;;;1.00;;
19036;SDS011;9651;49.138;8.900;2022-10-16T02:14:57;1.17;;;0.80;;
19036;SDS011;9651;49.138;8.900;2022-10-16T02:19:01;1.90;;;0.90;;
19036;SDS011;9651;49.138;8.900;2022-10-16T02:23:04;1.30;;;1.00;;
19036;SDS011;9651;49.138;8.900;2022-10-16T02:27:10;1.20;;;0.90;;
19036;SDS011;9651;49.138;8.900;2022-10-16T02:31:19;0.80;;;0.77;;
19036;SDS011;9651;49.138;8.900;2022-10-16T02:35:29;1.47;;;0.77;;
19036;SDS011;9651;49.138;8.900;2022-10-16T02:39:32;1.40;;;0.90;;
19036;SDS011;9651;49.138;8.900;2022-10-16T02:43:35;3.67;;;1.63;;
19036;SDS011;9651;49.138;8.900;2022-10-16T02:47:37;2.13;;;0.80;;
19036;SDS011;9651;49.138;8.900;2022-10-16T02:51:40;1.27;;;0.83;;
19036;SDS011;9651;49.138;8.900;2022-10-16T02:55:42;1.03;;;0.83;;
19036;SDS011;9651;49.138;8.900;2022-10-16T02:59:44;1.40;;;0.80;;
19036;SDS011;9651;49.138;8.900;2022-10-16T03:03:46;0.90;;;0.70;;
19036;SDS011;9651;49.138;8.900;2022-10-16T03:07:50;1.33;;;1.07;;
19036;SDS011;9651;49.138;8.900;2022-10-16T03:11:52;1.77;;;0.90;;
19036;SDS011;9651;49.138;8.900;2022-10-16T03:15:54;0.80;;;0.70;;
19036;SDS011;9651;49.138;8.900;2022-10-16T03:19:56;2.17;;;0.70;;
19036;SDS011;9651;49.138;8.900;2022-10-16T03:23:59;1.57;;;0.80;;
19036;SDS011;9651;49.138;8.900;2022-10-16T03:28:01;1.63;;;0.70;;
19036;SDS011;9651;49.138;8.900;2022-10-16T03:32:04;1.70;;;0.90;;
19036;SDS011;9651;49.138;8.900;2022-10-16T03:36:06;4.33;;;0.90;;
19036;SDS011;9651;49.138;8.900;2022-10-16T03:40:09;1.37;;;0.83;;
19036;SDS011;9651;49.138;8.900;2022-10-16T03:44:11;2.07;;;0.80;;
19036;SDS011;9651;49.138;8.900;2022-10-16T03:48:13;3.03;;;0.90;;
19036;SDS011;9651;49.138;8.900;2022-10-16T03:52:15;3.23;;;0.90;;
19036;SDS011;9651;49.138;8.900;2022-10-16T03:56:19;1.67;;;0.97;;
19036;SDS011;9651;49.138;8.900;2022-10-16T04:00:21;2.43;;;0.97;;
19036;SDS011;9651;49.138;8.900;2022-10-16T04:04:23;2.47;;;1.07;;
19036;SDS011;9651;49.138;8.900;2022-10-16T04:08:25;0.83;;;0.80;;
19036;SDS011;9651;49.138;8.900;2022-10-16T04:12:28;4.77;;;0.80;;
19036;SDS011;9651;49.138;8.900;2022-10-16T04:16:30;0.87;;;0.73;;
19036;SDS011;9651;49.138;8.900;2022-10-16T04:20:32;1.60;;;1.00;;
19036;SDS011;9651;49.138;8.900;2022-10-16T04:24:34;0.90;;;0.70;;
19036;SDS011;9651;49.138;8.900;2022-10-16T04:28:37;1.90;;;0.80;;
19036;SDS011;9651;49.138;8.900;2022-10-16T04:32:40;3.37;;;1.10;;
19036;SDS011;9651;49.138;8.900;2022-10-16T04:36:42;1.00;;;0.90;;
19036;SDS011;9651;49.138;8.900;2022-10-16T04:40:44;4.03;;;1.70;;
19036;SDS011;9651;49.138;8.900;2022-10-16T04:44:47;3.97;;;1.30;;
19036;SDS011;9651;49.138;8.900;2022-10-16T04:48:48;2.33;;;1.30;;
19036;SDS011;9651;49.138;8.900;2022-10-16T04:52:50;3.73;;;1.90;;
19036;SDS011;9651;49.138;8.900;2022-10-16T04:56:52;2.83;;;1.53;;
19036;SDS011;9651;49.138;8.900;2022-10-16T05:00:55;3.30;;;1.50;;
19036;SDS011;9651;49.138;8.900;2022-10-16T05:04:57;6.23;;;3.07;;
19036;SDS011;9651;49.138;8.900;2022-10-16T05:08:59;3.27;;;2.13;;
19036;SDS011;9651;49.138;8.900;2022-10-16T05:13:01;4.70;;;2.53;;
19036;SDS011;9651;49.138;8.900;2022-10-16T05:17:04;1.50;;;1.40;;
19036;SDS011;9651;49.138;8.900;2022-10-16T05:21:07;1.77;;;1.50;;
19036;SDS011;9651;49.138;8.900;2022-10-16T05:25:09;4.20;;;1.90;;
19036;SDS011;9651;49.138;8.900;2022-10-16T05:29:12;1.63;;;1.40;;
19036;SDS011;9651;49.138;8.900;2022-10-16T05:33:15;1.97;;;1.20;;
19036;SDS011;9651;49.138;8.900;2022-10-16T05:37:17;1.40;;;1.27;;
19036;SDS011;9651;49.138;8.900;2022-10-16T05:41:19;1.20;;;1.10;;
19036;SDS011;9651;49.138;8.900;2022-10-16T05:45:21;1.67;;;1.07;;
19036;SDS011;9651;49.138;8.900;2022-10-16T05:49:25;3.77;;;1.90;;
19036;SDS011;9651;49.138;8.900;2022-10-16T05:53:27;8.60;;;2.10;;
19036;SDS011;9651;49.138;8.900;2022-10-16T05:57:29;1.50;;;1.20;;
19036;SDS011;9651;49.138;8.900;2022-10-16T06:01:31;1.60;;;1.47;;
19036;SDS011;9651;49.138;8.900;2022-10-16T06:05:35;4.80;;;1.53;;
19036;SDS011;9651;49.138;8.900;2022-10-16T06:09:37;1.37;;;1.27;;
19036;SDS011;9651;49.138;8.900;2022-10-16T06:13:39;4.60;;;1.77;;
19036;SDS011;9651;49.138;8.900;2022-10-16T06:17:42;1.93;;;1.67;;
19036;SDS011;9651;49.138;8.900;2022-10-16T06:21:45;5.60;;;3.47;;
19036;SDS011;9651;49.138;8.900;2022-10-16T06:25:48;9.53;;;6.87;;
19036;SDS011;9651;49.138;8.900;2022-10-16T06:29:49;8.73;;;4.50;;
19036;SDS011;9651;49.138;8.900;2022-10-16T06:33:51;9.63;;;4.47;;
19036;SDS011;9651;49.138;8.900;2022-10-16T06:37:55;8.40;;;5.60;;
19036;SDS011;9651;49.138;8.900;2022-10-16T06:41:57;7.73;;;6.00;;
19036;SDS011;9651;49.138;8.900;2022-10-16T06:46:04;7.43;;;5.93;;
19036;SDS011;9651;49.138;8.900;2022-10-16T06:50:07;5.20;;;4.40;;
19036;SDS011;9651;49.138;8.900;2022-10-16T06:54:11;4.10;;;3.20;;
19036;SDS011;9651;49.138;8.900;2022-10-16T06:58:13;3.13;;;2.43;;
19036;SDS011;9651;49.138;8.900;2022-10-16T07:02:14;2.87;;;2.33;;
19036;SDS011;9651;49.138;8.900;2022-10-16T07:06:17;3.70;;;2.50;;
19036;SDS011;9651;49.138;8.900;2022-10-16T07:10:22;3.93;;;3.00;;
19036;SDS011;9651;49.138;8.900;2022-10-16T07:14:24;2.33;;;2.00;;
19036;SDS011;9651;49.138;8.900;2022-10-16T07:18:26;2.50;;;2.03;;
19036;SDS011;9651;49.138;8.900;2022-10-16T07:22:29;4.83;;;2.07;;
19036;SDS011;9651;49.138;8.900;2022-10-16T07:26:34;3.20;;;2.33;;
19036;SDS011;9651;49.138;8.900;2022-10-16T07:30:39;3.33;;;2.00;;
19036;SDS011;9651;49.138;8.900;2022-10-16T07:34:41;10.60;;;2.27;;
19036;SDS011;9651;49.138;8.900;2022-10-16T07:38:43;3.80;;;2.60;;
19036;SDS011;9651;49.138;8.900;2022-10-16T07:42:47;2.53;;;2.20;;
19036;SDS011;9651;49.138;8.900;2022-10-16T07:46:49;5.30;;;2.33;;
19036;SDS011;9651;49.138;8.900;2022-10-16T07:50:50;3.23;;;2.53;;
19036;SDS011;9651;49.138;8.900;2022-10-16T07:54:52;1.57;;;1.47;;
19036;SDS011;9651;49.138;8.900;2022-10-16T07:58:55;3.10;;;1.73;;
19036;SDS011;9651;49.138;8.900;2022-10-16T08:02:57;2.37;;;1.73;;
19036;SDS011;9651;49.138;8.900;2022-10-16T08:07:00;1.90;;;1.60;;
19036;SDS011;9651;49.138;8.900;2022-10-16T08:11:02;4.37;;;2.00;;
19036;SDS011;9651;49.138;8.900;2022-10-16T08:15:06;2.67;;;1.80;;
19036;SDS011;9651;49.138;8.900;2022-10-16T08:19:09;5.50;;;1.77;;
19036;SDS011;9651;49.138;8.900;2022-10-16T08:23:10;2.60;;;1.57;;
19036;SDS011;9651;49.138;8.900;2022-10-16T08:27:13;2.90;;;1.50;;
19036;SDS011;9651;49.138;8.900;2022-10-16T08:31:16;2.15;;;0.93;;
19036;SDS011;9651;49.138;8.900;2022-10-16T08:35:18;2.13;;;1.00;;
19036;SDS011;9651;49.138;8.900;2022-10-16T08:39:20;1.83;;;1.20;;
19036;SDS011;9651;49.138;8.900;2022-10-16T08:43:28;1.35;;;1.23;;
19036;SDS011;9651;49.138;8.900;2022-10-16T08:47:47;3.40;;;0.93;;
19036;SDS011;9651;49.138;8.900;2022-10-16T08:51:52;1.90;;;1.40;;
19036;SDS011;9651;49.138;8.900;2022-10-16T08:55:57;2.17;;;1.27;;
19036;SDS011;9651;49.138;8.900;2022-10-16T09:00:00;2.97;;;1.45;;
19036;SDS011;9651;49.138;8.900;2022-10-16T09:04:14;1.65;;;1.05;;
19036;SDS011;9651;49.138;8.900;2022-10-16T09:08:46;3.67;;;1.00;;
19036;SDS011;9651;49.138;8.900;2022-10-16T09:12:58;4.55;;;1.10;;
19036;SDS011;9651;49.138;8.900;2022-10-16T09:17:14;1.88;;;1.00;;
19036;SDS011;9651;49.138;8.900;2022-10-16T09:21:27;1.45;;;1.10;;
19036;SDS011;9651;49.138;8.900;2022-10-16T09:25:30;1.83;;;1.08;;
19036;SDS011;9651;49.138;8.900;2022-10-16T09:29:33;2.05;;;1.02;;
19036;SDS011;9651;49.138;8.900;2022-10-16T09:33:36;1.10;;;1.00;;
19036;SDS011;9651;49.138;8.900;2022-10-16T09:37:41;14.30;;;1.60;;
19036;SDS011;9651;49.138;8.900;2022-10-16T09:41:45;2.83;;;0.93;;
19036;SDS011;9651;49.138;8.900;2022-10-16T09:45:53;3.20;;;0.90;;
19036;SDS011;9651;49.138;8.900;2022-10-16T09:49:57;1.02;;;0.93;;
19036;SDS011;9651;49.138;8.900;2022-10-16T09:54:12;1.98;;;1.23;;
19036;SDS011;9651;49.138;8.900;2022-10-16T09:58:15;1.80;;;1.38;;
19036;SDS011;9651;49.138;8.900;2022-10-16T10:02:19;6.80;;;1.80;;
19036;SDS011;9651;49.138;8.900;2022-10-16T10:06:25;3.58;;;1.80;;
19036;SDS011;9651;49.138;8.900;2022-10-16T10:10:31;1.58;;;0.85;;
19036;SDS011;9651;49.138;8.900;2022-10-16T10:14:38;1.65;;;1.35;;
19036;SDS011;9651;49.138;8.900;2022-10-16T10:18:43;4.50;;;1.10;;
19036;SDS011;9651;49.138;8.900;2022-10-16T10:22:45;2.40;;;1.00;;
19036;SDS011;9651;49.138;8.900;2022-10-16T10:26:54;7.22;;;1.35;;
19036;SDS011;9651;49.138;8.900;2022-10-16T10:31:01;1.52;;;1.08;;
19036;SDS011;9651;49.138;8.900;2022-10-16T10:35:13;1.52;;;1.30;;
19036;SDS011;9651;49.138;8.900;2022-10-16T10:39:19;1.75;;;0.90;;
19036;SDS011;9651;49.138;8.900;2022-10-16T10:43:32;1.73;;;0.80;;
19036;SDS011;9651;49.138;8.900;2022-10-16T10:47:47;1.42;;;1.00;;
19036;SDS011;9651;49.138;8.900;2022-10-16T10:52:02;2.38;;;0.90;;
19036;SDS011;9651;49.138;8.900;2022-10-16T10:56:16;2.05;;;0.80;;
19036;SDS011;9651;49.138;8.900;2022-10-16T11:00:35;2.55;;;0.90;;
19036;SDS011;9651;49.138;8.900;2022-10-16T11:04:50;1.20;;;1.10;;
19036;SDS011;9651;49.138;8.900;2022-10-16T11:09:17;1.30;;;0.90;;
19036;SDS011;9651;49.138;8.900;2022-10-16T11:13:24;2.97;;;1.00;;
19036;SDS011;9651;49.138;8.900;2022-10-16T11:17:35;1.40;;;1.00;;
19036;SDS011;9651;49.138;8.900;2022-10-16T11:21:43;2.45;;;1.02;;
19036;SDS011;9651;49.138;8.900;2022-10-16T11:25:51;1.92;;;1.02;;
19036;SDS011;9651;49.138;8.900;2022-10-16T11:29:58;0.80;;;0.73;;
19036;SDS011;9651;49.138;8.900;2022-10-16T11:34:05;3.97;;;1.45;;
19036;SDS011;9651;49.138;8.900;2022-10-16T11:38:19;3.38;;;2.47;;
19036;SDS011;9651;49.138;8.900;2022-10-16T11:42:32;4.68;;;4.13;;
19036;SDS011;9651;49.138;8.900;2022-10-16T11:46:42;3.47;;;2.42;;
19036;SDS011;9651;49.138;8.900;2022-10-16T11:50:52;3.58;;;1.65;;
19036;SDS011;9651;49.138;8.900;2022-10-16T11:54:56;3.13;;;1.30;;
19036;SDS011;9651;49.138;8.900;2022-10-16T11:59:03;4.63;;;1.30;;
19036;SDS011;9651;49.138;8.900;2022-10-16T12:03:11;2.20;;;2.00;;
19036;SDS011;9651;49.138;8.900;2022-10-16T12:07:26;1.58;;;1.30;;
19036;SDS011;9651;49.138;8.900;2022-10-16T12:11:36;7.05;;;3.90;;
19036;SDS011;9651;49.138;8.900;2022-10-16T12:15:39;5.20;;;1.58;;
19036;SDS011;9651;49.138;8.900;2022-10-16T12:19:41;2.50;;;1.10;;
19036;SDS011;9651;49.138;8.900;2022-10-16T12:23:48;1.25;;;1.15;;
19036;SDS011;9651;49.138;8.900;2022-10-16T12:28:03;2.95;;;1.15;;
19036;SDS011;9651;49.138;8.900;2022-10-16T12:32:27;1.52;;;1.15;;
19036;SDS011;9651;49.138;8.900;2022-10-16T12:36:32;2.30;;;1.00;;
19036;SDS011;9651;49.138;8.900;2022-10-16T12:40:37;5.72;;;1.30;;
19036;SDS011;9651;49.138;8.900;2022-10-16T12:44:39;2.03;;;0.95;;
19036;SDS011;9651;49.138;8.900;2022-10-16T12:48:42;3.85;;;1.20;;
19036;SDS011;9651;49.138;8.900;2022-10-16T12:52:45;1.80;;;1.08;;
19036;SDS011;9651;49.138;8.900;2022-10-16T12:56:54;3.85;;;1.70;;
19036;SDS011;9651;49.138;8.900;2022-10-16T13:01:15;2.08;;;1.23;;
19036;SDS011;9651;49.138;8.900;2022-10-16T13:05:30;3.92;;;1.20;;
19036;SDS011;9651;49.138;8.900;2022-10-16T13:09:51;3.67;;;1.38;;
19036;SDS011;9651;49.138;8.900;2022-10-16T13:14:14;2.03;;;1.15;;
19036;SDS011;9651;49.138;8.900;2022-10-16T13:18:40;4.18;;;1.40;;
19036;SDS011;9651;49.138;8.900;2022-10-16T13:22:53;1.98;;;1.20;;
19036;SDS011;9651;49.138;8.900;2022-10-16T13:27:01;4.25;;;1.23;;
19036;SDS011;9651;49.138;8.900;2022-10-16T13:31:12;2.08;;;1.20;;
19036;SDS011;9651;49.138;8.900;2022-10-16T13:35:19;2.45;;;1.33;;
19036;SDS011;9651;49.138;8.900;2022-10-16T13:39:23;4.50;;;1.35;;
19036;SDS011;9651;49.138;8.900;2022-10-16T13:43:27;2.03;;;1.15;;
19036;SDS011;9651;49.138;8.900;2022-10-16T13:47:36;1.88;;;0.90;;
19036;SDS011;9651;49.138;8.900;2022-10-16T13:51:41;1.80;;;1.23;;
19036;SDS011;9651;49.138;8.900;2022-10-16T13:55:55;2.53;;;1.15;;
19036;SDS011;9651;49.138;8.900;2022-10-16T13:59:57;2.65;;;1.40;;
19036;SDS011;9651;49.138;8.900;2022-10-16T14:04:02;1.10;;;1.00;;
19036;SDS011;9651;49.138;8.900;2022-10-16T14:08:09;3.50;;;1.25;;
19036;SDS011;9651;49.138;8.900;2022-10-16T14:12:13;3.53;;;1.50;;
19036;SDS011;9651;49.138;8.900;2022-10-16T14:16:16;2.22;;;1.27;;
19036;SDS011;9651;49.138;8.900;2022-10-16T14:20:22;3.33;;;1.42;;
19036;SDS011;9651;49.138;8.900;2022-10-16T14:24:31;1.20;;;1.10;;
19036;SDS011;9651;49.138;8.900;2022-10-16T14:28:34;1.40;;;1.10;;
19036;SDS011;9651;49.138;8.900;2022-10-16T14:32:37;2.75;;;1.70;;
19036;SDS011;9651;49.138;8.900;2022-10-16T14:36:43;4.45;;;1.95;;
19036;SDS011;9651;49.138;8.900;2022-10-16T14:40:46;5.28;;;2.20;;
19036;SDS011;9651;49.138;8.900;2022-10-16T14:44:49;3.97;;;2.15;;
19036;SDS011;9651;49.138;8.900;2022-10-16T14:48:54;5.32;;;1.92;;
19036;SDS011;9651;49.138;8.900;2022-10-16T14:53:04;4.88;;;1.80;;
19036;SDS011;9651;49.138;8.900;2022-10-16T14:57:16;2.25;;;1.90;;
19036;SDS011;9651;49.138;8.900;2022-10-16T15:01:22;8.63;;;2.40;;
19036;SDS011;9651;49.138;8.900;2022-10-16T15:05:24;3.45;;;1.50;;
19036;SDS011;9651;49.138;8.900;2022-10-16T15:09:28;2.97;;;1.52;;
19036;SDS011;9651;49.138;8.900;2022-10-16T15:13:30;2.50;;;1.55;;
19036;SDS011;9651;49.138;8.900;2022-10-16T15:17:34;4.32;;;2.72;;
19036;SDS011;9651;49.138;8.900;2022-10-16T15:21:36;2.47;;;1.80;;
19036;SDS011;9651;49.138;8.900;2022-10-16T15:25:43;1.58;;;1.48;;
19036;SDS011;9651;49.138;8.900;2022-10-16T15:29:47;2.40;;;2.20;;
19036;SDS011;9651;49.138;8.900;2022-10-16T15:33:52;5.32;;;1.98;;
19036;SDS011;9651;49.138;8.900;2022-10-16T15:37:58;4.72;;;2.28;;
19036;SDS011;9651;49.138;8.900;2022-10-16T15:42:01;6.38;;;3.33;;
19036;SDS011;9651;49.138;8.900;2022-10-16T15:46:04;4.32;;;2.20;;
19036;SDS011;9651;49.138;8.900;2022-10-16T15:50:09;3.47;;;2.60;;
19036;SDS011;9651;49.138;8.900;2022-10-16T15:54:15;4.47;;;2.30;;
19036;SDS011;9651;49.138;8.900;2022-10-16T15:58:24;4.60;;;2.53;;
19036;SDS011;9651;49.138;8.900;2022-10-16T16:02:28;4.82;;;4.10;;
19036;SDS011;9651;49.138;8.900;2022-10-16T16:06:33;5.28;;;2.80;;
19036;SDS011;9651;49.138;8.900;2022-10-16T16:10:37;5.10;;;2.58;;
19036;SDS011;9651;49.138;8.900;2022-10-16T16:14:40;2.20;;;2.00;;
19036;SDS011;9651;49.138;8.900;2022-10-16T16:18:43;2.47;;;2.10;;
19036;SDS011;9651;49.138;8.900;2022-10-16T16:22:45;5.45;;;2.67;;
19036;SDS011;9651;49.138;8.900;2022-10-16T16:26:47;2.88;;;2.40;;
19036;SDS011;9651;49.138;8.900;2022-10-16T16:30:51;6.32;;;3.20;;
19036;SDS011;9651;49.138;8.900;2022-10-16T16:34:53;4.20;;;3.80;;
19036;SDS011;9651;49.138;8.900;2022-10-16T16:38:57;6.07;;;4.85;;
19036;SDS011;9651;49.138;8.900;2022-10-16T16:43:01;4.80;;;3.28;;
19036;SDS011;9651;49.138;8.900;2022-10-16T16:47:05;3.70;;;3.35;;
19036;SDS011;9651;49.138;8.900;2022-10-16T16:51:12;5.60;;;3.67;;
19036;SDS011;9651;49.138;8.900;2022-10-16T16:55:17;4.93;;;3.60;;
19036;SDS011;9651;49.138;8.900;2022-10-16T16:59:20;4.75;;;3.60;;
19036;SDS011;9651;49.138;8.900;2022-10-16T17:03:24;7.80;;;4.00;;
19036;SDS011;9651;49.138;8.900;2022-10-16T17:07:26;9.52;;;4.30;;
19036;SDS011;9651;49.138;8.900;2022-10-16T17:11:33;7.50;;;4.18;;
19036;SDS011;9651;49.138;8.900;2022-10-16T17:15:35;7.80;;;5.10;;
19036;SDS011;9651;49.138;8.900;2022-10-16T17:19:38;7.25;;;4.38;;
19036;SDS011;9651;49.138;8.900;2022-10-16T17:23:40;8.17;;;3.30;;
19036;SDS011;9651;49.138;8.900;2022-10-16T17:27:42;7.53;;;2.87;;
19036;SDS011;9651;49.138;8.900;2022-10-16T17:31:44;4.37;;;2.70;;
19036;SDS011;9651;49.138;8.900;2022-10-16T17:35:50;7.20;;;3.00;;
19036;SDS011;9651;49.138;8.900;2022-10-16T17:39:52;4.53;;;2.50;;
19036;SDS011;9651;49.138;8.900;2022-10-16T17:43:53;2.73;;;2.53;;
19036;SDS011;9651;49.138;8.900;2022-10-16T17:47:57;5.57;;;3.53;;
19036;SDS011;9651;49.138;8.900;2022-10-16T17:52:01;4.70;;;3.27;;
19036;SDS011;9651;49.138;8.900;2022-10-16T17:56:03;5.50;;;3.10;;
19036;SDS011;9651;49.138;8.900;2022-10-16T18:00:06;4.40;;;3.10;;
19036;SDS011;9651;49.138;8.900;2022-10-16T18:04:09;6.03;;;3.80;;
19036;SDS011;9651;49.138;8.900;2022-10-16T18:08:14;6.03;;;3.80;;
19036;SDS011;9651;49.138;8.900;2022-10-16T18:12:16;9.07;;;3.83;;
19036;SDS011;9651;49.138;8.900;2022-10-16T18:16:17;5.57;;;3.90;;
19036;SDS011;9651;49.138;8.900;2022-10-16T18:20:20;10.30;;;4.07;;
19036;SDS011;9651;49.138;8.900;2022-10-16T18:24:24;6.33;;;3.90;;
19036;SDS011;9651;49.138;8.900;2022-10-16T18:28:26;8.63;;;4.87;;
19036;SDS011;9651;49.138;8.900;2022-10-16T18:32:28;7.53;;;5.00;;
19036;SDS011;9651;49.138;8.900;2022-10-16T18:36:31;6.97;;;3.93;;
19036;SDS011;9651;49.138;8.900;2022-10-16T18:40:36;6.17;;;4.60;;
19036;SDS011;9651;49.138;8.900;2022-10-16T18:44:38;6.10;;;5.37;;
19036;SDS011;9651;49.138;8.900;2022-10-16T18:48:39;7.27;;;5.10;;
19036;SDS011;9651;49.138;8.900;2022-10-16T18:52:46;7.63;;;4.83;;
19036;SDS011;9651;49.138;8.900;2022-10-16T18:56:51;11.00;;;7.43;;
19036;SDS011;9651;49.138;8.900;2022-10-16T19:00:53;9.57;;;6.87;;
19036;SDS011;9651;49.138;8.900;2022-10-16T19:04:55;6.97;;;5.77;;
19036;SDS011;9651;49.138;8.900;2022-10-16T19:08:57;8.70;;;5.37;;
19036;SDS011;9651;49.138;8.900;2022-10-16T19:13:00;6.10;;;4.83;;
19036;SDS011;9651;49.138;8.900;2022-10-16T19:17:02;10.07;;;4.70;;
19036;SDS011;9651;49.138;8.900;2022-10-16T19:21:05;7.40;;;3.83;;
19036;SDS011;9651;49.138;8.900;2022-10-16T19:25:08;6.57;;;3.07;;
19036;SDS011;9651;49.138;8.900;2022-10-16T19:29:11;6.10;;;3.17;;
19036;SDS011;9651;49.138;8.900;2022-10-16T19:33:14;3.53;;;3.00;;
19036;SDS011;9651;49.138;8.900;2022-10-16T19:37:16;5.40;;;2.90;;
19036;SDS011;9651;49.138;8.900;2022-10-16T19:41:18;4.10;;;2.57;;
19036;SDS011;9651;49.138;8.900;2022-10-16T19:45:21;5.30;;;2.87;;
19036;SDS011;9651;49.138;8.900;2022-10-16T19:49:23;7.77;;;2.63;;
19036;SDS011;9651;49.138;8.900;2022-10-16T19:53:27;19.93;;;3.37;;
19036;SDS011;9651;49.138;8.900;2022-10-16T19:57:34;3.27;;;2.63;;
19036;SDS011;9651;49.138;8.900;2022-10-16T20:01:47;7.67;;;5.40;;
19036;SDS011;9651;49.138;8.900;2022-10-16T20:05:50;3.63;;;2.97;;
19036;SDS011;9651;49.138;8.900;2022-10-16T20:09:53;4.10;;;3.10;;
19036;SDS011;9651;49.138;8.900;2022-10-16T20:13:55;5.27;;;3.03;;
19036;SDS011;9651;49.138;8.900;2022-10-16T20:17:58;4.07;;;3.03;;
19036;SDS011;9651;49.138;8.900;2022-10-16T20:22:00;3.17;;;2.50;;
19036;SDS011;9651;49.138;8.900;2022-10-16T20:26:02;5.63;;;2.60;;
19036;SDS011;9651;49.138;8.900;2022-10-16T20:30:05;6.93;;;3.03;;
19036;SDS011;9651;49.138;8.900;2022-10-16T20:34:11;5.13;;;3.50;;
19036;SDS011;9651;49.138;8.900;2022-10-16T20:38:14;11.97;;;2.73;;
19036;SDS011;9651;49.138;8.900;2022-10-16T20:42:17;4.93;;;2.83;;
19036;SDS011;9651;49.138;8.900;2022-10-16T20:46:21;4.30;;;2.50;;
19036;SDS011;9651;49.138;8.900;2022-10-16T20:50:28;6.73;;;2.87;;
19036;SDS011;9651;49.138;8.900;2022-10-16T20:54:30;5.00;;;2.70;;
19036;SDS011;9651;49.138;8.900;2022-10-16T20:58:33;8.43;;;3.10;;
19036;SDS011;9651;49.138;8.900;2022-10-16T21:02:35;3.60;;;2.60;;
19036;SDS011;9651;49.138;8.900;2022-10-16T21:06:39;3.13;;;2.83;;
19036;SDS011;9651;49.138;8.900;2022-10-16T21:10:41;4.03;;;3.13;;
19036;SDS011;9651;49.138;8.900;2022-10-16T21:14:42;4.47;;;2.77;;
19036;SDS011;9651;49.138;8.900;2022-10-16T21:18:44;4.63;;;3.30;;
19036;SDS011;9651;49.138;8.900;2022-10-16T21:22:47;8.70;;;3.00;;
19036;SDS011;9651;49.138;8.900;2022-10-16T21:26:49;3.73;;;3.30;;
19036;SDS011;9651;49.138;8.900;2022-10-16T21:30:51;7.20;;;4.63;;
19036;SDS011;9651;49.138;8.900;2022-10-16T21:34:53;4.07;;;3.20;;
19036;SDS011;9651;49.138;8.900;2022-10-16T21:38:58;6.57;;;3.60;;
19036;SDS011;9651;49.138;8.900;2022-10-16T21:43:01;5.33;;;3.40;;
19036;SDS011;9651;49.138;8.900;2022-10-16T21:47:03;4.47;;;3.20;;
19036;SDS011;9651;49.138;8.900;2022-10-16T21:51:05;7.83;;;3.47;;
19036;SDS011;9651;49.138;8.900;2022-10-16T21:55:09;10.70;;;3.47;;
19036;SDS011;9651;49.138;8.900;2022-10-16T21:59:11;9.03;;;3.40;;
19036;SDS011;9651;49.138;8.900;2022-10-16T22:03:13;4.87;;;3.63;;
19036;SDS011;9651;49.138;8.900;2022-10-16T22:07:15;4.70;;;3.30;;
19036;SDS011;9651;49.138;8.900;2022-10-16T22:11:19;7.30;;;3.33;;
19036;SDS011;9651;49.138;8.900;2022-10-16T22:15:23;4.10;;;3.63;;
19036;SDS011;9651;49.138;8.900;2022-10-16T22:19:25;4.20;;;3.27;;
19036;SDS011;9651;49.138;8.900;2022-10-16T22:23:27;9.60;;;4.07;;
19036;SDS011;9651;49.138;8.900;2022-10-16T22:27:30;11.47;;;3.87;;
19036;SDS011;9651;49.138;8.900;2022-10-16T22:31:33;3.83;;;3.00;;
19036;SDS011;9651;49.138;8.900;2022-10-16T22:35:35;5.00;;;3.47;;
19036;SDS011;9651;49.138;8.900;2022-10-16T22:39:37;5.07;;;2.83;;
19036;SDS011;9651;49.138;8.900;2022-10-16T22:43:41;10.67;;;3.90;;
19036;SDS011;9651;49.138;8.900;2022-10-16T22:47:44;3.60;;;2.83;;
19036;SDS011;9651;49.138;8.900;2022-10-16T22:51:46;5.27;;;2.73;;
19036;SDS011;9651;49.138;8.900;2022-10-16T22:55:48;5.27;;;2.70;;
19036;SDS011;9651;49.138;8.900;2022-10-16T22:59:51;5.33;;;3.03;;
19036;SDS011;9651;49.138;8.900;2022-10-16T23:03:56;7.20;;;2.53;;
19036;SDS011;9651;49.138;8.900;2022-10-16T23:08:00;9.40;;;2.80;;
19036;SDS011;9651;49.138;8.900;2022-10-16T23:12:02;3.67;;;2.50;;
19036;SDS011;9651;49.138;8.900;2022-10-16T23:16:05;4.47;;;2.60;;
19036;SDS011;9651;49.138;8.900;2022-10-16T23:20:08;3.07;;;1.90;;
19036;SDS011;9651;49.138;8.900;2022-10-16T23:24:11;6.27;;;2.60;;
19036;SDS011;9651;49.138;8.900;2022-10-16T23:28:13;4.80;;;2.70;;
19036;SDS011;9651;49.138;8.900;2022-10-16T23:32:16;9.47;;;2.50;;
19036;SDS011;9651;49.138;8.900;2022-10-16T23:36:19;3.87;;;2.77;;
19036;SDS011;9651;49.138;8.900;2022-10-16T23:40:21;2.80;;;2.40;;
19036;SDS011;9651;49.138;8.900;2022-10-16T23:44:23;5.77;;;2.30;;
19036;SDS011;9651;49.138;8.900;2022-10-16T23:48:26;4.37;;;2.67;;
19036;SDS011;9651;49.138;8.900;2022-10-16T23:52:28;4.20;;;2.87;;
19036;SDS011;9651;49.138;8.900;2022-10-16T23:56:30;4.40;;;2.40;;
